sensor_id;sensor_type;location;lat;lon;timestamp;P1;P2;P0
76043;PMS7003;64740;34.694;33.088;2022-11-02T00:04:32;19.2;16.6;12.1
76043;PMS7003;64740;34.694;33.088;2022-11-02T00:09:00;19.1;15.8;11.2
76043;PMS7003;64740;34.694;33.088;2022-11-02T00:14:20;18.7;16.2;12
76043;PMS7003;64740;34.694;33.088;2022-11-02T00:19:22;19.3;16.5;12.4
76043;PMS7003;64740;34.694;33.088;2022-11-02T00:24:36;19.6;16.7;12.4
76043;PMS7003;64740;34.694;33.088;2022-11-02T00:29:20;18.1;15.7;11.9
76043;PMS7003;64740;34.694;33.088;2022-11-02T00:34:08;18.2;15.9;11.3
76043;PMS7003;64740;34.694;33.088;2022-11-02T00:39:22;18.2;15.8;12
76043;PMS7003;64740;34.694;33.088;2022-11-02T00:44:10;18.8;15.1;11.2
76043;PMS7003;64740;34.694;33.088;2022-11-02T00:49:24;18.9;15.6;11.8
76043;PMS7003;64740;34.694;33.088;2022-11-02T00:54:10;17.1;13.7;10.2
76043;PMS7003;64740;34.694;33.088;2022-11-02T00:59:14;18.4;15.9;11.9
76043;PMS7003;64740;34.694;33.088;2022-11-02T01:04:08;17.4;14.7;10.9
76043;PMS7003;64740;34.694;33.088;2022-11-02T01:09:36;17.6;14.5;10.5
76043;PMS7003;64740;34.694;33.088;2022-11-02T01:14:14;16.7;13.7;10.4
76043;PMS7003;64740;34.694;33.088;2022-11-02T01:19:38;17.2;14.4;11.3
76043;PMS7003;64740;34.694;33.088;2022-11-02T01:24:08;16.9;14.4;10.4
76043;PMS7003;64740;34.694;33.088;2022-11-02T01:29:24;18.9;15.4;11.6
76043;PMS7003;64740;34.694;33.088;2022-11-02T01:34:30;16.1;14.1;10.3
76043;PMS7003;64740;34.694;33.088;2022-11-02T01:39:38;16.8;13.9;10.3
76043;PMS7003;64740;34.694;33.088;2022-11-02T01:44:42;15.9;14;10.4
76043;PMS7003;64740;34.694;33.088;2022-11-02T01:49:22;15.6;13.4;10
76043;PMS7003;64740;34.694;33.088;2022-11-02T01:54:28;16.6;13.8;10.4
76043;PMS7003;64740;34.694;33.088;2022-11-02T01:59:17;15.9;12.8;9.6
76043;PMS7003;64740;34.694;33.088;2022-11-02T02:04:20;17.5;14.5;11.1
76043;PMS7003;64740;34.694;33.088;2022-11-02T02:08:54;16.1;12.9;9.6
76043;PMS7003;64740;34.694;33.088;2022-11-02T02:13:54;17.3;13.7;10.2
76043;PMS7003;64740;34.694;33.088;2022-11-02T02:19:14;15.8;13.3;10
76043;PMS7003;64740;34.694;33.088;2022-11-02T02:24:43;15.4;12.6;9.6
76043;PMS7003;64740;34.694;33.088;2022-11-02T02:28:55;15.1;12.9;9.9
76043;PMS7003;64740;34.694;33.088;2022-11-02T02:34:42;14.7;12.7;9.5
76043;PMS7003;64740;34.694;33.088;2022-11-02T02:39:03;14.7;12.3;9.3
76043;PMS7003;64740;34.694;33.088;2022-11-02T02:44:22;13.6;12.1;8.8
76043;PMS7003;64740;34.694;33.088;2022-11-02T02:49:29;15;13.1;9.5
76043;PMS7003;64740;34.694;33.088;2022-11-02T02:54:42;14.4;12.7;9.3
76043;PMS7003;64740;34.694;33.088;2022-11-02T02:59:42;15.8;13.1;9.5
76043;PMS7003;64740;34.694;33.088;2022-11-02T03:04:14;14.4;12.5;9.5
76043;PMS7003;64740;34.694;33.088;2022-11-02T03:09:31;13.4;11.1;8.3
76043;PMS7003;64740;34.694;33.088;2022-11-02T03:14:23;15.2;12.2;9.3
76043;PMS7003;64740;34.694;33.088;2022-11-02T03:19:32;14.8;12.8;9.5
76043;PMS7003;64740;34.694;33.088;2022-11-02T03:23:55;14.5;12.5;9.5
76043;PMS7003;64740;34.694;33.088;2022-11-02T03:29:03;15;11.9;8.8
76043;PMS7003;64740;34.694;33.088;2022-11-02T03:34:14;15;11.9;8.8
76043;PMS7003;64740;34.694;33.088;2022-11-02T03:39:39;14.3;11.5;8.5
76043;PMS7003;64740;34.694;33.088;2022-11-02T03:44:19;13.8;11.8;9.2
76043;PMS7003;64740;34.694;33.088;2022-11-02T03:49:40;12.3;10.5;8.4
76043;PMS7003;64740;34.694;33.088;2022-11-02T03:54:04;12.7;10.7;8.4
76043;PMS7003;64740;34.694;33.088;2022-11-02T03:59:25;14.5;11.6;8.7
76043;PMS7003;64740;34.694;33.088;2022-11-02T04:04:14;13.3;11.9;8.8
76043;PMS7003;64740;34.694;33.088;2022-11-02T04:09:14;14.2;11.7;9
76043;PMS7003;64740;34.694;33.088;2022-11-02T04:14:22;14.4;11.2;8.8
76043;PMS7003;64740;34.694;33.088;2022-11-02T04:18:54;15.3;12;8.8
76043;PMS7003;64740;34.694;33.088;2022-11-02T04:24:38;15.1;12.6;9.2
76043;PMS7003;64740;34.694;33.088;2022-11-02T04:29:24;14;12.2;9
76043;PMS7003;64740;34.694;33.088;2022-11-02T04:34:20;13.8;11.5;8.5
76043;PMS7003;64740;34.694;33.088;2022-11-02T04:39:26;14.4;11.3;8.2
76043;PMS7003;64740;34.694;33.088;2022-11-02T04:44:20;13.2;11.6;8.9
76043;PMS7003;64740;34.694;33.088;2022-11-02T04:49:04;14.5;11.9;9
76043;PMS7003;64740;34.694;33.088;2022-11-02T04:54:40;14.3;11.6;8.7
76043;PMS7003;64740;34.694;33.088;2022-11-02T04:59:18;14.6;11.1;8.3
76043;PMS7003;64740;34.694;33.088;2022-11-02T05:04:40;13.1;10.8;8.4
76043;PMS7003;64740;34.694;33.088;2022-11-02T05:08:54;14.2;11.6;8.7
76043;PMS7003;64740;34.694;33.088;2022-11-02T05:14:40;15;11.4;8.1
76043;PMS7003;64740;34.694;33.088;2022-11-02T05:19:14;15.1;12.2;9
76043;PMS7003;64740;34.694;33.088;2022-11-02T05:24:20;15.1;11.9;8.7
76043;PMS7003;64740;34.694;33.088;2022-11-02T05:29:42;15.7;12.2;9.1
76043;PMS7003;64740;34.694;33.088;2022-11-02T05:33:54;14.6;12.4;9.1
76043;PMS7003;64740;34.694;33.088;2022-11-02T05:39:40;14.5;12;9.1
76043;PMS7003;64740;34.694;33.088;2022-11-02T05:44:26;14.3;11.1;8.2
76043;PMS7003;64740;34.694;33.088;2022-11-02T05:49:28;13.2;10.4;7.9
76043;PMS7003;64740;34.694;33.088;2022-11-02T05:54:14;14.5;11.8;9
76043;PMS7003;64740;34.694;33.088;2022-11-02T05:59:04;15.3;12.1;8.8
76043;PMS7003;64740;34.694;33.088;2022-11-02T06:04:14;14.6;12;8.7
76043;PMS7003;64740;34.694;33.088;2022-11-02T06:09:38;14.7;12;9
76043;PMS7003;64740;34.694;33.088;2022-11-02T06:14:14;14.1;11.5;8.8
76043;PMS7003;64740;34.694;33.088;2022-11-02T06:19:38;14.5;11.6;8.7
76043;PMS7003;64740;34.694;33.088;2022-11-02T06:24:04;13.5;11.6;9
76043;PMS7003;64740;34.694;33.088;2022-11-02T06:29:14;13.5;11.8;8.7
76043;PMS7003;64740;34.694;33.088;2022-11-02T06:34:12;15;12.1;9.2
76043;PMS7003;64740;34.694;33.088;2022-11-02T06:39:28;15.7;12.8;9.8
76043;PMS7003;64740;34.694;33.088;2022-11-02T06:44:38;18.5;14.1;10.4
76043;PMS7003;64740;34.694;33.088;2022-11-02T06:49:28;21.2;15.2;11
76043;PMS7003;64740;34.694;33.088;2022-11-02T06:54:40;17.8;15.1;11.3
76043;PMS7003;64740;34.694;33.088;2022-11-02T06:59:24;17.3;13.4;10.1
76043;PMS7003;64740;34.694;33.088;2022-11-02T07:04:28;16.8;14.1;10.8
76043;PMS7003;64740;34.694;33.088;2022-11-02T07:09:12;15.8;13.1;9.8
76043;PMS7003;64740;34.694;33.088;2022-11-02T07:14:04;17;13.9;9.8
76043;PMS7003;64740;34.694;33.088;2022-11-02T07:19:12;20.2;16.9;12.4
76043;PMS7003;64740;34.694;33.088;2022-11-02T07:24:40;21.7;18.6;13.8
76043;PMS7003;64740;34.694;33.088;2022-11-02T07:29:18;19;15.9;11.8
76043;PMS7003;64740;34.694;33.088;2022-11-02T07:34:40;23.7;19.7;14.7
76043;PMS7003;64740;34.694;33.088;2022-11-02T07:39:04;24.7;20.7;14.7
76043;PMS7003;64740;34.694;33.088;2022-11-02T07:44:24;22.9;19.7;14.3
76043;PMS7003;64740;34.694;33.088;2022-11-02T07:49:12;23.9;20.3;14.5
76043;PMS7003;64740;34.694;33.088;2022-11-02T07:54:28;24.2;20.6;15.1
76043;PMS7003;64740;34.694;33.088;2022-11-02T07:59:40;23.2;20.1;14.8
76043;PMS7003;64740;34.694;33.088;2022-11-02T08:04:04;24.7;21.1;15.4
76043;PMS7003;64740;34.694;33.088;2022-11-02T08:08:54;24.3;21.1;15.2
76043;PMS7003;64740;34.694;33.088;2022-11-02T08:14:38;23.7;21;15.4
76043;PMS7003;64740;34.694;33.088;2022-11-02T08:19:26;23.8;20.3;15.4
76043;PMS7003;64740;34.694;33.088;2022-11-02T08:24:12;25.1;21.1;15.4
76043;PMS7003;64740;34.694;33.088;2022-11-02T08:29:08;24;21;15.7
76043;PMS7003;64740;34.694;33.088;2022-11-02T08:34:02;25.3;22;16
76043;PMS7003;64740;34.694;33.088;2022-11-02T08:39:38;24.4;21.3;15.7
76043;PMS7003;64740;34.694;33.088;2022-11-02T08:44:30;23.8;19.9;14.8
76043;PMS7003;64740;34.694;33.088;2022-11-02T08:49:40;22.7;19.1;13.3
76043;PMS7003;64740;34.694;33.088;2022-11-02T08:54:26;22.9;19.2;13.9
76043;PMS7003;64740;34.694;33.088;2022-11-02T08:58:54;23.9;19.7;14.7
76043;PMS7003;64740;34.694;33.088;2022-11-02T09:04:12;22.8;19.9;14.9
76043;PMS7003;64740;34.694;33.088;2022-11-02T09:09:30;22.8;20.3;14.5
76043;PMS7003;64740;34.694;33.088;2022-11-02T09:14:24;22.3;20;14.3
76043;PMS7003;64740;34.694;33.088;2022-11-02T09:19:04;21.7;19.8;14.5
76043;PMS7003;64740;34.694;33.088;2022-11-02T09:23:54;23;19.7;14.7
76043;PMS7003;64740;34.694;33.088;2022-11-02T09:29:40;19.3;17.3;12.6
76043;PMS7003;64740;34.694;33.088;2022-11-02T09:34:28;21;18.5;13.6
76043;PMS7003;64740;34.694;33.088;2022-11-02T09:39:14;23.6;19.9;14.9
76043;PMS7003;64740;34.694;33.088;2022-11-02T09:44:20;22.4;19.3;13.9
76043;PMS7003;64740;34.694;33.088;2022-11-02T09:48:54;23;20.1;14.8
76043;PMS7003;64740;34.694;33.088;2022-11-02T09:54:41;21.2;19.1;14
76043;PMS7003;64740;34.694;33.088;2022-11-02T09:59:04;20.3;17.3;13.3
76043;PMS7003;64740;34.694;33.088;2022-11-02T10:04:33;20.6;17.7;13
76043;PMS7003;64740;34.694;33.088;2022-11-02T10:09:05;20.6;17.5;12.8
76043;PMS7003;64740;34.694;33.088;2022-11-02T10:14:05;21.4;18.5;12.9
76043;PMS7003;64740;34.694;33.088;2022-11-02T10:18:54;19.4;16.5;12.9
76043;PMS7003;64740;34.694;33.088;2022-11-02T10:24:31;21;17.1;12.6
76043;PMS7003;64740;34.694;33.088;2022-11-02T10:29:28;21.2;17.9;13.2
76043;PMS7003;64740;34.694;33.088;2022-11-02T10:34:18;17.8;15;11.2
76043;PMS7003;64740;34.694;33.088;2022-11-02T10:39:15;16.9;14.1;10.8
76043;PMS7003;64740;34.694;33.088;2022-11-02T10:44:42;16.1;13.9;10.7
76043;PMS7003;64740;34.694;33.088;2022-11-02T10:49:35;15.2;13.3;10.4
76043;PMS7003;64740;34.694;33.088;2022-11-02T10:54:06;16.4;13.9;10.7
76043;PMS7003;64740;34.694;33.088;2022-11-02T10:59:18;17.3;14.8;11.1
76043;PMS7003;64740;34.694;33.088;2022-11-02T11:03:57;16.9;14.9;11.2
76043;PMS7003;64740;34.694;33.088;2022-11-02T11:09:45;19.4;15.8;11.8
76043;PMS7003;64740;34.694;33.088;2022-11-02T11:14:19;19.5;16.2;12.5
76043;PMS7003;64740;34.694;33.088;2022-11-02T11:19:40;19.1;16.8;12.7
76043;PMS7003;64740;34.694;33.088;2022-11-02T11:23:56;19;16.7;12.7
76043;PMS7003;64740;34.694;33.088;2022-11-02T11:29:08;20.8;17.5;13.1
76043;PMS7003;64740;34.694;33.088;2022-11-02T11:34:04;18.9;16.4;12.5
76043;PMS7003;64740;34.694;33.088;2022-11-02T11:39:30;19.2;16.7;12.9
76043;PMS7003;64740;34.694;33.088;2022-11-02T11:44:24;19;15.8;12
76043;PMS7003;64740;34.694;33.088;2022-11-02T11:48:54;19.6;16.5;12.2
76043;PMS7003;64740;34.694;33.088;2022-11-02T11:54:08;16.7;15.1;11
76043;PMS7003;64740;34.694;33.088;2022-11-02T11:59:44;17;14.9;11.4
76043;PMS7003;64740;34.694;33.088;2022-11-02T12:04:40;18;15.3;11.4
76043;PMS7003;64740;34.694;33.088;2022-11-02T12:29:33;18;15.3;11.4
76043;PMS7003;64740;34.694;33.088;2022-11-02T12:34:33;17;14.7;11.4
76043;PMS7003;64740;34.694;33.088;2022-11-02T12:39:12;17.2;14.5;11
76043;PMS7003;64740;34.694;33.088;2022-11-02T12:43:56;15.2;13.5;10.3
76043;PMS7003;64740;34.694;33.088;2022-11-02T12:49:14;15.6;13.6;10.5
76043;PMS7003;64740;34.694;33.088;2022-11-02T12:54:39;14.3;12.6;10
76043;PMS7003;64740;34.694;33.088;2022-11-02T12:59:24;14.4;13;10.1
76043;PMS7003;64740;34.694;33.088;2022-11-02T13:04:08;16;13.6;10.5
76043;PMS7003;64740;34.694;33.088;2022-11-02T13:09:17;15.6;13.3;10.5
76043;PMS7003;64740;34.694;33.088;2022-11-02T13:14:40;14.3;12.6;9.7
76043;PMS7003;64740;34.694;33.088;2022-11-02T13:19:39;13.2;12;9.4
76043;PMS7003;64740;34.694;33.088;2022-11-02T13:24:14;14.8;12.6;10
76043;PMS7003;64740;34.694;33.088;2022-11-02T13:29:25;14.7;12.2;9.8
76043;PMS7003;64740;34.694;33.088;2022-11-02T13:33:54;15;12.2;9.4
76043;PMS7003;64740;34.694;33.088;2022-11-02T13:39:36;14.7;12.3;9.7
76043;PMS7003;64740;34.694;33.088;2022-11-02T13:44:28;14.3;11.4;9.2
76043;PMS7003;64740;34.694;33.088;2022-11-02T13:49:28;14;12;9.4
76043;PMS7003;64740;34.694;33.088;2022-11-02T13:54:13;15.3;12.8;9.9
76043;PMS7003;64740;34.694;33.088;2022-11-02T13:58:56;15.6;13;10.2
76043;PMS7003;64740;34.694;33.088;2022-11-02T14:04:04;14.8;12;9.3
76043;PMS7003;64740;34.694;33.088;2022-11-02T14:08:57;14.5;12.6;9.8
76043;PMS7003;64740;34.694;33.088;2022-11-02T14:14:23;13.8;12.5;9.6
76043;PMS7003;64740;34.694;33.088;2022-11-02T14:19:31;13.9;12.5;9.4
76043;PMS7003;64740;34.694;33.088;2022-11-02T14:25:15;15.6;13.2;10.1
76043;PMS7003;64740;34.694;33.088;2022-11-02T14:29:47;15.8;13.1;9.8
76043;PMS7003;64740;34.694;33.088;2022-11-02T14:34:43;15.4;12.8;10
76043;PMS7003;64740;34.694;33.088;2022-11-02T14:39:04;16.2;13.6;10.2
76043;PMS7003;64740;34.694;33.088;2022-11-02T14:44:25;16.5;13.7;10.1
76043;PMS7003;64740;34.694;33.088;2022-11-02T14:49:02;16.4;14.1;10.6
76043;PMS7003;64740;34.694;33.088;2022-11-02T14:54:40;15.8;13.3;10.4
76043;PMS7003;64740;34.694;33.088;2022-11-02T14:59:17;16.2;13.7;10.4
76043;PMS7003;64740;34.694;33.088;2022-11-02T15:04:29;14.5;11.4;8.9
76043;PMS7003;64740;34.694;33.088;2022-11-02T15:09:02;16.8;14.1;9.8
76043;PMS7003;64740;34.694;33.088;2022-11-02T15:13:54;18;15.8;12
76043;PMS7003;64740;34.694;33.088;2022-11-02T15:18:54;19;16;12
76043;PMS7003;64740;34.694;33.088;2022-11-02T15:24:28;18.2;16.3;12.7
76043;PMS7003;64740;34.694;33.088;2022-11-02T15:29:29;18.2;16.2;12.4
76043;PMS7003;64740;34.694;33.088;2022-11-02T15:34:30;17;15.5;12.3
76043;PMS7003;64740;34.694;33.088;2022-11-02T15:38:54;19.8;16.8;12.8
76043;PMS7003;64740;34.694;33.088;2022-11-02T15:44:47;20.7;17.6;13.3
76043;PMS7003;64740;34.694;33.088;2022-11-02T15:49:47;19.4;17.1;13
76043;PMS7003;64740;34.694;33.088;2022-11-02T15:54:20;20;17.5;13
76043;PMS7003;64740;34.694;33.088;2022-11-02T16:00:28;21;17.5;13.7
76043;PMS7003;64740;34.694;33.088;2022-11-02T16:04:41;20.6;18.1;13.7
76043;PMS7003;64740;34.694;33.088;2022-11-02T16:09:38;21.3;17.9;13.7
76043;PMS7003;64740;34.694;33.088;2022-11-02T16:14:07;20.2;16.3;11.9
76043;PMS7003;64740;34.694;33.088;2022-11-02T16:19:28;22.3;18.7;13.9
76043;PMS7003;64740;34.694;33.088;2022-11-02T16:24:12;21.3;17.9;13.2
76043;PMS7003;64740;34.694;33.088;2022-11-02T16:29:02;19.8;16.4;12.5
76043;PMS7003;64740;34.694;33.088;2022-11-02T16:34:14;20.3;17.4;12.7
76043;PMS7003;64740;34.694;33.088;2022-11-02T16:39:21;20.4;17.9;13.2
76043;PMS7003;64740;34.694;33.088;2022-11-02T16:44:23;24.1;19.9;14.8
76043;PMS7003;64740;34.694;33.088;2022-11-02T16:49:28;25.1;21.8;15.7
76043;PMS7003;64740;34.694;33.088;2022-11-02T16:54:15;29.7;24.2;17.5
76043;PMS7003;64740;34.694;33.088;2022-11-02T16:59:48;32.1;27.9;19.2
76043;PMS7003;64740;34.694;33.088;2022-11-02T17:04:41;28.2;24.1;17
76043;PMS7003;64740;34.694;33.088;2022-11-02T17:09:17;23.3;19.7;14.1
76043;PMS7003;64740;34.694;33.088;2022-11-02T17:14:22;22.1;19.4;13.8
76043;PMS7003;64740;34.694;33.088;2022-11-02T17:19:41;18.9;16.1;12.3
76043;PMS7003;64740;34.694;33.088;2022-11-02T17:24:42;21.6;18;13.8
76043;PMS7003;64740;34.694;33.088;2022-11-02T17:29:32;21.6;18.7;13.5
76043;PMS7003;64740;34.694;33.088;2022-11-02T17:34:26;20.3;17.7;13.5
76043;PMS7003;64740;34.694;33.088;2022-11-02T17:38:58;21;16.7;12.5
76043;PMS7003;64740;34.694;33.088;2022-11-02T17:44:07;20.1;16.9;12.1
76043;PMS7003;64740;34.694;33.088;2022-11-02T17:49:04;21.1;18.2;13.3
76043;PMS7003;64740;34.694;33.088;2022-11-02T17:54:32;21.3;17.7;13.1
76043;PMS7003;64740;34.694;33.088;2022-11-02T17:59:26;21.6;19.2;13.7
76043;PMS7003;64740;34.694;33.088;2022-11-02T18:04:32;22;18.8;14.2
76043;PMS7003;64740;34.694;33.088;2022-11-02T18:09:04;21.8;19.1;14.1
76043;PMS7003;64740;34.694;33.088;2022-11-02T18:14:44;21.8;18.4;13.7
76043;PMS7003;64740;34.694;33.088;2022-11-02T18:19:44;22.2;19.2;14.4
76043;PMS7003;64740;34.694;33.088;2022-11-02T18:24:16;22;18.5;13.6
76043;PMS7003;64740;34.694;33.088;2022-11-02T18:29:28;25.6;22.4;16.2
76043;PMS7003;64740;34.694;33.088;2022-11-02T18:33:56;20.5;17.3;12.8
76043;PMS7003;64740;34.694;33.088;2022-11-02T18:39:42;20.8;17.6;13.2
76043;PMS7003;64740;34.694;33.088;2022-11-02T18:44:18;19.4;16.3;11.8
76043;PMS7003;64740;34.694;33.088;2022-11-02T18:49:32;32.6;25.8;17.6
76043;PMS7003;64740;34.694;33.088;2022-11-02T18:54:16;21.3;18.3;13.3
76043;PMS7003;64740;34.694;33.088;2022-11-02T18:59:18;20.1;17.8;13.2
76043;PMS7003;64740;34.694;33.088;2022-11-02T19:04:04;20.9;17.1;12.7
76043;PMS7003;64740;34.694;33.088;2022-11-02T19:09:34;19.8;16.6;12.4
76043;PMS7003;64740;34.694;33.088;2022-11-02T19:14:21;21;18.7;13.5
76043;PMS7003;64740;34.694;33.088;2022-11-02T19:19:35;18;14.9;10.5
76043;PMS7003;64740;34.694;33.088;2022-11-02T19:23:56;19.6;17.2;12.2
76043;PMS7003;64740;34.694;33.088;2022-11-02T19:29:46;20.2;17;12.3
76043;PMS7003;64740;34.694;33.088;2022-11-02T19:34:46;20.5;18;12.8
76043;PMS7003;64740;34.694;33.088;2022-11-02T19:39:16;19.4;16.8;12.1
76043;PMS7003;64740;34.694;33.088;2022-11-02T19:44:45;20.5;17.1;12.3
76043;PMS7003;64740;34.694;33.088;2022-11-02T19:49:08;19.5;17.1;12.8
76043;PMS7003;64740;34.694;33.088;2022-11-02T19:54:30;19.8;16.9;12.4
76043;PMS7003;64740;34.694;33.088;2022-11-02T19:59:06;20.5;17.3;12.7
76043;PMS7003;64740;34.694;33.088;2022-11-02T20:04:34;18.9;16.9;12.5
76043;PMS7003;64740;34.694;33.088;2022-11-02T20:09:05;19.3;16.7;12.3
76043;PMS7003;64740;34.694;33.088;2022-11-02T20:14:04;19.6;15.6;11.8
76043;PMS7003;64740;34.694;33.088;2022-11-02T20:19:12;17.7;14.9;11.3
76043;PMS7003;64740;34.694;33.088;2022-11-02T20:24:34;16.4;14.2;10.8
76043;PMS7003;64740;34.694;33.088;2022-11-02T20:29:30;16.9;14.2;11.3
76043;PMS7003;64740;34.694;33.088;2022-11-02T20:34:34;13.7;11.8;10
76043;PMS7003;64740;34.694;33.088;2022-11-02T20:39:04;16.3;14.1;11.2
76043;PMS7003;64740;34.694;33.088;2022-11-02T20:44:30;15.2;12.5;8.7
76043;PMS7003;64740;34.694;33.088;2022-11-02T20:49:18;16;13.6;10.1
76043;PMS7003;64740;34.694;33.088;2022-11-02T20:54:44;16;14;10.7
76043;PMS7003;64740;34.694;33.088;2022-11-02T20:59:32;15.4;13;9.9
76043;PMS7003;64740;34.694;33.088;2022-11-02T21:03:56;16.9;14.2;10.7
76043;PMS7003;64740;34.694;33.088;2022-11-02T21:09:07;16.6;14.2;10.6
76043;PMS7003;64740;34.694;33.088;2022-11-02T21:14:46;15.3;13.5;9.9
76043;PMS7003;64740;34.694;33.088;2022-11-02T21:19:10;14.3;11.9;9.4
76043;PMS7003;64740;34.694;33.088;2022-11-02T21:24:32;14.7;12.9;9.7
76043;PMS7003;64740;34.694;33.088;2022-11-02T21:28:59;15.5;12.1;9.1
76043;PMS7003;64740;34.694;33.088;2022-11-02T21:34:30;13.7;11.4;8.4
76043;PMS7003;64740;34.694;33.088;2022-11-02T21:39:31;12.7;10.5;8.5
76043;PMS7003;64740;34.694;33.088;2022-11-02T21:44:46;14;11.5;9
76043;PMS7003;64740;34.694;33.088;2022-11-02T21:49:46;11.7;8.8;7
76043;PMS7003;64740;34.694;33.088;2022-11-02T21:53:56;13.1;10.8;8.6
76043;PMS7003;64740;34.694;33.088;2022-11-02T21:59:26;12.1;9.9;7.6
76043;PMS7003;64740;34.694;33.088;2022-11-02T22:04:03;13.6;9.9;8
76043;PMS7003;64740;34.694;33.088;2022-11-02T22:09:25;12.4;10.4;8.2
76043;PMS7003;64740;34.694;33.088;2022-11-02T22:14:13;12;10.3;7.9
76043;PMS7003;64740;34.694;33.088;2022-11-02T22:19:16;10.9;9.9;7.8
76043;PMS7003;64740;34.694;33.088;2022-11-02T22:24:27;12.4;10.1;8
76043;PMS7003;64740;34.694;33.088;2022-11-02T22:29:42;11.9;9.9;7.7
76043;PMS7003;64740;34.694;33.088;2022-11-02T22:34:16;12.4;9.8;7.9
76043;PMS7003;64740;34.694;33.088;2022-11-02T22:39:26;12.2;10;7.7
76043;PMS7003;64740;34.694;33.088;2022-11-02T22:44:03;11.4;9.8;7.5
76043;PMS7003;64740;34.694;33.088;2022-11-02T22:49:40;11.5;9.7;7.9
76043;PMS7003;64740;34.694;33.088;2022-11-02T22:54:15;10.9;8.6;6.1
76043;PMS7003;64740;34.694;33.088;2022-11-02T22:59:42;10.5;9.2;6.6
76043;PMS7003;64740;34.694;33.088;2022-11-02T23:04:40;11.5;9.5;7.8
76043;PMS7003;64740;34.694;33.088;2022-11-02T23:09:03;11.2;9.5;7.5
76043;PMS7003;64740;34.694;33.088;2022-11-02T23:14:28;11;9.6;7.1
76043;PMS7003;64740;34.694;33.088;2022-11-02T23:19:29;10.5;8.7;6.7
76043;PMS7003;64740;34.694;33.088;2022-11-02T23:24:28;10.9;9.1;7.1
76043;PMS7003;64740;34.694;33.088;2022-11-02T23:29:14;11.4;9.5;7.3
76043;PMS7003;64740;34.694;33.088;2022-11-02T23:34:02;10.3;8.8;7.1
76043;PMS7003;64740;34.694;33.088;2022-11-02T23:39:05;10.3;8.6;6.7
76043;PMS7003;64740;34.694;33.088;2022-11-02T23:44:41;10.1;8.3;6.5
76043;PMS7003;64740;34.694;33.088;2022-11-02T23:49:29;10.3;8.2;6.5
76043;PMS7003;64740;34.694;33.088;2022-11-02T23:54:43;9.8;8.3;6.5
76043;PMS7003;64740;34.694;33.088;2022-11-02T23:59:03;9.9;8.4;6.6
